sensor_id;sensor_type;location;lat;lon;timestamp;temperature;humidity
12872;DHT22;6504;53.766;9.626;2022-10-29T00:00:51;15.60;99.90
12872;DHT22;6504;53.766;9.626;2022-10-29T00:03:20;15.60;99.90
12872;DHT22;6504;53.766;9.626;2022-10-29T00:05:58;15.60;99.90
12872;DHT22;6504;53.766;9.626;2022-10-29T00:08:27;15.60;99.90
12872;DHT22;6504;53.766;9.626;2022-10-29T00:11:03;15.50;99.90
12872;DHT22;6504;53.766;9.626;2022-10-29T00:13:32;15.50;99.90
12872;DHT22;6504;53.766;9.626;2022-10-29T00:16:03;15.50;99.90
12872;DHT22;6504;53.766;9.626;2022-10-29T00:18:31;15.50;99.90
12872;DHT22;6504;53.766;9.626;2022-10-29T00:21:01;15.50;99.90
12872;DHT22;6504;53.766;9.626;2022-10-29T00:23:30;15.40;99.90
12872;DHT22;6504;53.766;9.626;2022-10-29T00:25:59;15.40;99.90
12872;DHT22;6504;53.766;9.626;2022-10-29T00:28:27;15.40;99.90
12872;DHT22;6504;53.766;9.626;2022-10-29T00:30:56;15.40;99.90
12872;DHT22;6504;53.766;9.626;2022-10-29T00:33:24;15.40;99.90
12872;DHT22;6504;53.766;9.626;2022-10-29T00:35:55;15.30;99.90
12872;DHT22;6504;53.766;9.626;2022-10-29T00:38:24;15.30;99.90
12872;DHT22;6504;53.766;9.626;2022-10-29T00:40:53;15.20;99.90
12872;DHT22;6504;53.766;9.626;2022-10-29T00:43:23;15.20;99.90
12872;DHT22;6504;53.766;9.626;2022-10-29T00:45:53;15.20;99.90
12872;DHT22;6504;53.766;9.626;2022-10-29T00:48:24;15.10;99.90
12872;DHT22;6504;53.766;9.626;2022-10-29T00:50:53;15.10;99.90
12872;DHT22;6504;53.766;9.626;2022-10-29T00:53:28;15.10;99.90
12872;DHT22;6504;53.766;9.626;2022-10-29T00:55:57;15.10;99.90
12872;DHT22;6504;53.766;9.626;2022-10-29T00:58:25;15.10;99.90
12872;DHT22;6504;53.766;9.626;2022-10-29T01:00:55;15.10;99.90
12872;DHT22;6504;53.766;9.626;2022-10-29T01:03:23;15.00;99.90
12872;DHT22;6504;53.766;9.626;2022-10-29T01:05:52;15.00;99.90
12872;DHT22;6504;53.766;9.626;2022-10-29T01:08:21;15.00;99.90
12872;DHT22;6504;53.766;9.626;2022-10-29T01:10:58;15.00;99.90
12872;DHT22;6504;53.766;9.626;2022-10-29T01:13:42;15.00;99.90
12872;DHT22;6504;53.766;9.626;2022-10-29T01:16:19;15.00;99.90
12872;DHT22;6504;53.766;9.626;2022-10-29T01:18:57;15.00;99.90
12872;DHT22;6504;53.766;9.626;2022-10-29T01:21:42;15.00;99.90
12872;DHT22;6504;53.766;9.626;2022-10-29T01:27:41;15.00;99.90
12872;DHT22;6504;53.766;9.626;2022-10-29T01:30:21;15.00;99.90
12872;DHT22;6504;53.766;9.626;2022-10-29T01:32:58;15.00;99.90
12872;DHT22;6504;53.766;9.626;2022-10-29T01:35:32;15.00;99.90
12872;DHT22;6504;53.766;9.626;2022-10-29T01:38:13;15.00;99.90
12872;DHT22;6504;53.766;9.626;2022-10-29T01:40:51;15.00;99.90
12872;DHT22;6504;53.766;9.626;2022-10-29T01:43:25;15.00;99.90
12872;DHT22;6504;53.766;9.626;2022-10-29T01:46:00;15.00;99.90
12872;DHT22;6504;53.766;9.626;2022-10-29T01:48:36;14.90;99.90
12872;DHT22;6504;53.766;9.626;2022-10-29T01:51:08;14.90;99.90
12872;DHT22;6504;53.766;9.626;2022-10-29T01:53:38;14.90;99.90
12872;DHT22;6504;53.766;9.626;2022-10-29T01:56:06;14.90;99.90
12872;DHT22;6504;53.766;9.626;2022-10-29T01:58:35;14.90;99.90
12872;DHT22;6504;53.766;9.626;2022-10-29T02:01:15;14.90;99.90
12872;DHT22;6504;53.766;9.626;2022-10-29T02:03:52;14.80;99.90
12872;DHT22;6504;53.766;9.626;2022-10-29T02:06:29;14.80;99.90
12872;DHT22;6504;53.766;9.626;2022-10-29T02:09:06;14.80;99.90
12872;DHT22;6504;53.766;9.626;2022-10-29T02:11:43;14.70;99.90
12872;DHT22;6504;53.766;9.626;2022-10-29T02:14:17;14.70;99.90
12872;DHT22;6504;53.766;9.626;2022-10-29T02:16:47;14.70;99.90
12872;DHT22;6504;53.766;9.626;2022-10-29T02:19:17;14.70;99.90
12872;DHT22;6504;53.766;9.626;2022-10-29T02:21:45;14.70;99.90
12872;DHT22;6504;53.766;9.626;2022-10-29T02:24:13;14.70;99.90
12872;DHT22;6504;53.766;9.626;2022-10-29T02:26:41;14.70;99.90
12872;DHT22;6504;53.766;9.626;2022-10-29T02:29:09;14.60;99.90
12872;DHT22;6504;53.766;9.626;2022-10-29T02:31:37;14.60;99.90
12872;DHT22;6504;53.766;9.626;2022-10-29T02:34:05;14.60;99.90
12872;DHT22;6504;53.766;9.626;2022-10-29T02:36:34;14.60;99.90
12872;DHT22;6504;53.766;9.626;2022-10-29T02:39:02;14.60;99.90
12872;DHT22;6504;53.766;9.626;2022-10-29T02:41:30;14.60;99.90
12872;DHT22;6504;53.766;9.626;2022-10-29T02:43:58;14.60;99.90
12872;DHT22;6504;53.766;9.626;2022-10-29T02:46:26;14.60;99.90
12872;DHT22;6504;53.766;9.626;2022-10-29T02:48:55;14.60;99.90
12872;DHT22;6504;53.766;9.626;2022-10-29T02:51:23;14.60;99.90
12872;DHT22;6504;53.766;9.626;2022-10-29T02:53:53;14.60;99.90
12872;DHT22;6504;53.766;9.626;2022-10-29T02:56:21;14.60;99.90
12872;DHT22;6504;53.766;9.626;2022-10-29T02:58:49;14.50;99.90
12872;DHT22;6504;53.766;9.626;2022-10-29T03:01:17;14.50;99.90
12872;DHT22;6504;53.766;9.626;2022-10-29T03:03:45;14.40;99.90
12872;DHT22;6504;53.766;9.626;2022-10-29T03:06:13;14.40;99.90
12872;DHT22;6504;53.766;9.626;2022-10-29T03:08:41;14.40;99.90
12872;DHT22;6504;53.766;9.626;2022-10-29T03:11:11;14.40;99.90
12872;DHT22;6504;53.766;9.626;2022-10-29T03:13:39;14.40;99.90
12872;DHT22;6504;53.766;9.626;2022-10-29T03:16:08;14.40;99.90
12872;DHT22;6504;53.766;9.626;2022-10-29T03:18:36;14.40;99.90
12872;DHT22;6504;53.766;9.626;2022-10-29T03:21:04;14.30;99.90
12872;DHT22;6504;53.766;9.626;2022-10-29T03:23:32;14.30;99.90
12872;DHT22;6504;53.766;9.626;2022-10-29T03:26:00;14.30;99.90
12872;DHT22;6504;53.766;9.626;2022-10-29T03:28:29;14.30;99.90
12872;DHT22;6504;53.766;9.626;2022-10-29T03:30:57;14.30;99.90
12872;DHT22;6504;53.766;9.626;2022-10-29T03:33:25;14.30;99.90
12872;DHT22;6504;53.766;9.626;2022-10-29T03:35:57;14.20;99.90
12872;DHT22;6504;53.766;9.626;2022-10-29T03:38:25;14.20;99.90
12872;DHT22;6504;53.766;9.626;2022-10-29T03:40:53;14.20;99.90
12872;DHT22;6504;53.766;9.626;2022-10-29T03:43:22;14.20;99.90
12872;DHT22;6504;53.766;9.626;2022-10-29T03:45:51;14.10;99.90
12872;DHT22;6504;53.766;9.626;2022-10-29T03:48:19;14.10;99.90
12872;DHT22;6504;53.766;9.626;2022-10-29T03:50:53;14.10;99.90
12872;DHT22;6504;53.766;9.626;2022-10-29T03:53:22;14.10;99.90
12872;DHT22;6504;53.766;9.626;2022-10-29T03:55:50;14.10;99.90
12872;DHT22;6504;53.766;9.626;2022-10-29T03:58:19;14.00;99.90
12872;DHT22;6504;53.766;9.626;2022-10-29T04:00:54;14.00;99.90
12872;DHT22;6504;53.766;9.626;2022-10-29T04:03:22;14.00;99.90
12872;DHT22;6504;53.766;9.626;2022-10-29T04:05:50;13.90;99.90
12872;DHT22;6504;53.766;9.626;2022-10-29T04:08:19;13.90;99.90
12872;DHT22;6504;53.766;9.626;2022-10-29T04:10:48;13.90;99.90
12872;DHT22;6504;53.766;9.626;2022-10-29T04:13:17;13.80;99.90
12872;DHT22;6504;53.766;9.626;2022-10-29T04:15:45;13.80;99.90
12872;DHT22;6504;53.766;9.626;2022-10-29T04:18:15;13.80;99.90
12872;DHT22;6504;53.766;9.626;2022-10-29T04:20:43;13.80;99.90
12872;DHT22;6504;53.766;9.626;2022-10-29T04:23:31;13.70;99.90
12872;DHT22;6504;53.766;9.626;2022-10-29T04:26:19;13.70;99.90
12872;DHT22;6504;53.766;9.626;2022-10-29T04:29:06;13.60;99.90
12872;DHT22;6504;53.766;9.626;2022-10-29T04:31:35;13.60;99.90
12872;DHT22;6504;53.766;9.626;2022-10-29T04:34:04;13.50;99.90
12872;DHT22;6504;53.766;9.626;2022-10-29T04:36:32;13.50;99.90
12872;DHT22;6504;53.766;9.626;2022-10-29T04:39:00;13.50;99.90
12872;DHT22;6504;53.766;9.626;2022-10-29T04:41:28;13.50;99.90
12872;DHT22;6504;53.766;9.626;2022-10-29T04:43:56;13.50;99.90
12872;DHT22;6504;53.766;9.626;2022-10-29T04:46:24;13.50;99.90
12872;DHT22;6504;53.766;9.626;2022-10-29T04:48:52;13.50;99.90
12872;DHT22;6504;53.766;9.626;2022-10-29T04:51:23;13.50;99.90
12872;DHT22;6504;53.766;9.626;2022-10-29T04:53:51;13.50;99.90
12872;DHT22;6504;53.766;9.626;2022-10-29T04:56:19;13.50;99.90
12872;DHT22;6504;53.766;9.626;2022-10-29T04:58:50;13.50;99.90
12872;DHT22;6504;53.766;9.626;2022-10-29T05:01:18;13.50;99.90
12872;DHT22;6504;53.766;9.626;2022-10-29T05:03:46;13.50;99.90
12872;DHT22;6504;53.766;9.626;2022-10-29T05:06:14;13.50;99.90
12872;DHT22;6504;53.766;9.626;2022-10-29T05:08:44;13.50;99.90
12872;DHT22;6504;53.766;9.626;2022-10-29T05:11:12;13.50;99.90
12872;DHT22;6504;53.766;9.626;2022-10-29T05:13:40;13.50;99.90
12872;DHT22;6504;53.766;9.626;2022-10-29T05:16:08;13.50;99.90
12872;DHT22;6504;53.766;9.626;2022-10-29T05:18:35;13.50;99.90
12872;DHT22;6504;53.766;9.626;2022-10-29T05:21:04;13.50;99.90
12872;DHT22;6504;53.766;9.626;2022-10-29T05:23:32;13.50;99.90
12872;DHT22;6504;53.766;9.626;2022-10-29T05:26:02;13.50;99.90
12872;DHT22;6504;53.766;9.626;2022-10-29T05:28:30;13.50;99.90
12872;DHT22;6504;53.766;9.626;2022-10-29T05:30:59;13.50;99.90
12872;DHT22;6504;53.766;9.626;2022-10-29T05:33:28;13.50;99.90
12872;DHT22;6504;53.766;9.626;2022-10-29T05:35:58;13.50;99.90
12872;DHT22;6504;53.766;9.626;2022-10-29T05:38:26;13.50;99.90
12872;DHT22;6504;53.766;9.626;2022-10-29T05:40:56;13.50;99.90
12872;DHT22;6504;53.766;9.626;2022-10-29T05:43:26;13.60;99.90
12872;DHT22;6504;53.766;9.626;2022-10-29T05:45:54;13.60;99.90
12872;DHT22;6504;53.766;9.626;2022-10-29T05:48:22;13.60;99.90
12872;DHT22;6504;53.766;9.626;2022-10-29T05:50:50;13.60;99.90
12872;DHT22;6504;53.766;9.626;2022-10-29T05:53:18;13.60;99.90
12872;DHT22;6504;53.766;9.626;2022-10-29T05:55:46;13.60;99.90
12872;DHT22;6504;53.766;9.626;2022-10-29T05:58:14;13.60;99.90
12872;DHT22;6504;53.766;9.626;2022-10-29T06:00:44;13.70;99.90
12872;DHT22;6504;53.766;9.626;2022-10-29T06:03:13;13.60;99.90
12872;DHT22;6504;53.766;9.626;2022-10-29T06:05:42;13.60;99.90
12872;DHT22;6504;53.766;9.626;2022-10-29T06:08:10;13.60;99.90
12872;DHT22;6504;53.766;9.626;2022-10-29T06:10:38;13.60;99.90
12872;DHT22;6504;53.766;9.626;2022-10-29T06:13:09;13.60;99.90
12872;DHT22;6504;53.766;9.626;2022-10-29T06:15:37;13.60;99.90
12872;DHT22;6504;53.766;9.626;2022-10-29T06:18:07;13.60;99.90
12872;DHT22;6504;53.766;9.626;2022-10-29T06:20:36;13.60;99.90
12872;DHT22;6504;53.766;9.626;2022-10-29T06:23:04;13.70;99.90
12872;DHT22;6504;53.766;9.626;2022-10-29T06:25:32;13.60;99.90
12872;DHT22;6504;53.766;9.626;2022-10-29T06:28:02;13.70;99.90
12872;DHT22;6504;53.766;9.626;2022-10-29T06:30:31;13.70;99.90
12872;DHT22;6504;53.766;9.626;2022-10-29T06:33:00;13.70;99.90
12872;DHT22;6504;53.766;9.626;2022-10-29T06:35:30;13.70;99.90
12872;DHT22;6504;53.766;9.626;2022-10-29T06:38:03;13.80;99.90
12872;DHT22;6504;53.766;9.626;2022-10-29T06:40:37;13.80;99.90
12872;DHT22;6504;53.766;9.626;2022-10-29T06:43:07;13.70;99.90
12872;DHT22;6504;53.766;9.626;2022-10-29T06:45:36;13.70;99.90
12872;DHT22;6504;53.766;9.626;2022-10-29T06:48:04;13.80;99.90
12872;DHT22;6504;53.766;9.626;2022-10-29T06:50:34;13.70;99.90
12872;DHT22;6504;53.766;9.626;2022-10-29T06:53:03;13.60;99.90
12872;DHT22;6504;53.766;9.626;2022-10-29T06:55:32;13.70;99.90
12872;DHT22;6504;53.766;9.626;2022-10-29T06:58:02;13.70;99.90
12872;DHT22;6504;53.766;9.626;2022-10-29T07:00:31;13.70;99.90
12872;DHT22;6504;53.766;9.626;2022-10-29T07:02:59;13.70;99.90
12872;DHT22;6504;53.766;9.626;2022-10-29T07:05:27;13.70;99.90
12872;DHT22;6504;53.766;9.626;2022-10-29T07:07:58;13.70;99.90
12872;DHT22;6504;53.766;9.626;2022-10-29T07:10:28;13.70;99.90
12872;DHT22;6504;53.766;9.626;2022-10-29T07:12:57;13.70;99.90
12872;DHT22;6504;53.766;9.626;2022-10-29T07:15:25;13.70;99.90
12872;DHT22;6504;53.766;9.626;2022-10-29T07:17:58;13.70;99.90
12872;DHT22;6504;53.766;9.626;2022-10-29T07:20:26;13.80;99.90
12872;DHT22;6504;53.766;9.626;2022-10-29T07:22:57;13.80;99.90
12872;DHT22;6504;53.766;9.626;2022-10-29T07:25:26;13.80;99.90
12872;DHT22;6504;53.766;9.626;2022-10-29T07:27:57;13.80;99.90
12872;DHT22;6504;53.766;9.626;2022-10-29T07:30:28;13.80;99.90
12872;DHT22;6504;53.766;9.626;2022-10-29T07:32:57;13.80;99.90
12872;DHT22;6504;53.766;9.626;2022-10-29T07:35:25;13.90;99.90
12872;DHT22;6504;53.766;9.626;2022-10-29T07:37:58;13.90;99.90
12872;DHT22;6504;53.766;9.626;2022-10-29T07:40:36;13.90;99.90
12872;DHT22;6504;53.766;9.626;2022-10-29T07:43:04;13.90;99.90
12872;DHT22;6504;53.766;9.626;2022-10-29T07:45:32;13.90;99.90
12872;DHT22;6504;53.766;9.626;2022-10-29T07:48:02;14.00;99.90
12872;DHT22;6504;53.766;9.626;2022-10-29T07:50:31;14.00;99.90
12872;DHT22;6504;53.766;9.626;2022-10-29T07:53:01;14.00;99.90
12872;DHT22;6504;53.766;9.626;2022-10-29T07:55:29;14.10;99.90
12872;DHT22;6504;53.766;9.626;2022-10-29T07:57:58;14.00;99.90
12872;DHT22;6504;53.766;9.626;2022-10-29T08:00:27;14.00;99.90
12872;DHT22;6504;53.766;9.626;2022-10-29T08:02:55;14.00;99.90
12872;DHT22;6504;53.766;9.626;2022-10-29T08:05:25;14.10;99.90
12872;DHT22;6504;53.766;9.626;2022-10-29T08:07:53;14.10;99.90
12872;DHT22;6504;53.766;9.626;2022-10-29T08:10:23;14.10;99.90
12872;DHT22;6504;53.766;9.626;2022-10-29T08:12:53;14.10;99.90
12872;DHT22;6504;53.766;9.626;2022-10-29T08:15:22;14.10;99.90
12872;DHT22;6504;53.766;9.626;2022-10-29T08:17:50;14.10;99.90
12872;DHT22;6504;53.766;9.626;2022-10-29T08:20:19;14.20;99.90
12872;DHT22;6504;53.766;9.626;2022-10-29T08:22:47;14.10;99.90
12872;DHT22;6504;53.766;9.626;2022-10-29T08:25:15;14.20;99.90
12872;DHT22;6504;53.766;9.626;2022-10-29T08:27:51;14.20;99.90
12872;DHT22;6504;53.766;9.626;2022-10-29T08:30:24;14.20;99.90
12872;DHT22;6504;53.766;9.626;2022-10-29T08:32:52;14.30;99.90
12872;DHT22;6504;53.766;9.626;2022-10-29T08:35:20;14.30;99.90
12872;DHT22;6504;53.766;9.626;2022-10-29T08:37:48;14.30;99.90
12872;DHT22;6504;53.766;9.626;2022-10-29T08:40:28;14.30;99.90
12872;DHT22;6504;53.766;9.626;2022-10-29T08:45:52;14.30;99.90
12872;DHT22;6504;53.766;9.626;2022-10-29T08:48:28;14.30;99.90
12872;DHT22;6504;53.766;9.626;2022-10-29T08:51:02;14.30;99.90
12872;DHT22;6504;53.766;9.626;2022-10-29T08:53:36;14.40;99.90
12872;DHT22;6504;53.766;9.626;2022-10-29T08:56:09;14.40;99.90
12872;DHT22;6504;53.766;9.626;2022-10-29T08:58:44;14.40;99.90
12872;DHT22;6504;53.766;9.626;2022-10-29T09:01:14;14.40;99.90
12872;DHT22;6504;53.766;9.626;2022-10-29T09:03:42;14.40;99.90
12872;DHT22;6504;53.766;9.626;2022-10-29T09:06:12;14.40;99.90
12872;DHT22;6504;53.766;9.626;2022-10-29T09:08:56;14.40;99.90
12872;DHT22;6504;53.766;9.626;2022-10-29T09:11:36;14.40;99.90
12872;DHT22;6504;53.766;9.626;2022-10-29T09:14:26;14.40;99.90
12872;DHT22;6504;53.766;9.626;2022-10-29T09:17:06;14.50;99.90
12872;DHT22;6504;53.766;9.626;2022-10-29T09:19:52;14.50;99.90
12872;DHT22;6504;53.766;9.626;2022-10-29T09:22:28;14.50;99.90
12872;DHT22;6504;53.766;9.626;2022-10-29T09:25:08;14.50;99.90
12872;DHT22;6504;53.766;9.626;2022-10-29T09:27:48;14.60;99.90
12872;DHT22;6504;53.766;9.626;2022-10-29T09:30:21;14.60;99.90
12872;DHT22;6504;53.766;9.626;2022-10-29T09:32:55;14.60;99.90
12872;DHT22;6504;53.766;9.626;2022-10-29T09:35:37;14.60;99.90
12872;DHT22;6504;53.766;9.626;2022-10-29T09:38:11;14.60;99.90
12872;DHT22;6504;53.766;9.626;2022-10-29T09:40:42;14.60;99.90
12872;DHT22;6504;53.766;9.626;2022-10-29T09:43:27;14.70;99.90
12872;DHT22;6504;53.766;9.626;2022-10-29T09:46:10;14.70;99.90
12872;DHT22;6504;53.766;9.626;2022-10-29T09:48:44;14.60;99.90
12872;DHT22;6504;53.766;9.626;2022-10-29T09:51:30;14.70;99.90
12872;DHT22;6504;53.766;9.626;2022-10-29T09:53:59;14.70;99.90
12872;DHT22;6504;53.766;9.626;2022-10-29T09:56:28;14.70;99.90
12872;DHT22;6504;53.766;9.626;2022-10-29T09:59:11;14.70;99.90
12872;DHT22;6504;53.766;9.626;2022-10-29T10:01:47;14.80;99.90
12872;DHT22;6504;53.766;9.626;2022-10-29T10:04:21;14.80;99.90
12872;DHT22;6504;53.766;9.626;2022-10-29T10:07:05;14.90;99.90
12872;DHT22;6504;53.766;9.626;2022-10-29T10:09:52;14.90;99.90
12872;DHT22;6504;53.766;9.626;2022-10-29T10:12:23;14.90;99.90
12872;DHT22;6504;53.766;9.626;2022-10-29T10:15:03;15.00;99.90
12872;DHT22;6504;53.766;9.626;2022-10-29T10:17:55;15.00;99.90
12872;DHT22;6504;53.766;9.626;2022-10-29T10:20:38;15.10;99.90
12872;DHT22;6504;53.766;9.626;2022-10-29T10:23:24;15.10;99.90
12872;DHT22;6504;53.766;9.626;2022-10-29T10:25:54;15.20;99.90
12872;DHT22;6504;53.766;9.626;2022-10-29T10:28:30;15.20;99.90
12872;DHT22;6504;53.766;9.626;2022-10-29T10:31:09;15.20;99.90
12872;DHT22;6504;53.766;9.626;2022-10-29T10:33:49;15.20;99.90
12872;DHT22;6504;53.766;9.626;2022-10-29T10:36:19;15.20;99.90
12872;DHT22;6504;53.766;9.626;2022-10-29T10:38:50;15.30;99.90
12872;DHT22;6504;53.766;9.626;2022-10-29T10:41:23;15.30;99.90
12872;DHT22;6504;53.766;9.626;2022-10-29T10:43:54;15.40;99.90
12872;DHT22;6504;53.766;9.626;2022-10-29T10:46:28;15.40;99.90
12872;DHT22;6504;53.766;9.626;2022-10-29T10:49:02;15.30;99.90
12872;DHT22;6504;53.766;9.626;2022-10-29T10:51:32;15.40;99.90
12872;DHT22;6504;53.766;9.626;2022-10-29T10:54:03;15.40;99.90
12872;DHT22;6504;53.766;9.626;2022-10-29T10:56:51;15.40;99.90
12872;DHT22;6504;53.766;9.626;2022-10-29T10:59:25;15.40;99.90
12872;DHT22;6504;53.766;9.626;2022-10-29T11:01:58;15.40;99.90
12872;DHT22;6504;53.766;9.626;2022-10-29T11:04:30;15.50;99.90
12872;DHT22;6504;53.766;9.626;2022-10-29T11:07:04;15.50;99.90
12872;DHT22;6504;53.766;9.626;2022-10-29T11:09:36;15.50;99.90
12872;DHT22;6504;53.766;9.626;2022-10-29T11:12:10;15.50;99.90
12872;DHT22;6504;53.766;9.626;2022-10-29T11:14:45;15.50;99.90
12872;DHT22;6504;53.766;9.626;2022-10-29T11:17:24;15.50;99.90
12872;DHT22;6504;53.766;9.626;2022-10-29T11:19:57;15.60;99.90
12872;DHT22;6504;53.766;9.626;2022-10-29T11:22:30;15.60;99.90
12872;DHT22;6504;53.766;9.626;2022-10-29T11:25:05;15.60;99.90
12872;DHT22;6504;53.766;9.626;2022-10-29T11:27:46;15.60;99.90
12872;DHT22;6504;53.766;9.626;2022-10-29T11:30:17;15.70;99.90
12872;DHT22;6504;53.766;9.626;2022-10-29T11:32:55;15.70;99.90
12872;DHT22;6504;53.766;9.626;2022-10-29T11:35:37;15.70;99.90
12872;DHT22;6504;53.766;9.626;2022-10-29T11:38:13;15.80;99.90
12872;DHT22;6504;53.766;9.626;2022-10-29T11:40:44;15.80;99.90
12872;DHT22;6504;53.766;9.626;2022-10-29T11:43:17;15.80;99.90
12872;DHT22;6504;53.766;9.626;2022-10-29T11:45:57;15.80;99.90
12872;DHT22;6504;53.766;9.626;2022-10-29T11:48:35;15.80;99.90
12872;DHT22;6504;53.766;9.626;2022-10-29T11:51:19;15.90;99.90
12872;DHT22;6504;53.766;9.626;2022-10-29T11:53:57;15.90;99.90
12872;DHT22;6504;53.766;9.626;2022-10-29T11:56:42;16.00;99.90
12872;DHT22;6504;53.766;9.626;2022-10-29T11:59:20;16.00;99.90
12872;DHT22;6504;53.766;9.626;2022-10-29T12:01:53;16.00;99.90
12872;DHT22;6504;53.766;9.626;2022-10-29T12:04:27;16.10;99.90
12872;DHT22;6504;53.766;9.626;2022-10-29T12:07:16;16.10;99.90
12872;DHT22;6504;53.766;9.626;2022-10-29T12:12:49;16.10;99.90
12872;DHT22;6504;53.766;9.626;2022-10-29T12:15:26;16.10;99.90
12872;DHT22;6504;53.766;9.626;2022-10-29T12:18:04;16.20;99.90
12872;DHT22;6504;53.766;9.626;2022-10-29T12:20:39;16.20;99.90
12872;DHT22;6504;53.766;9.626;2022-10-29T12:23:19;16.20;99.90
12872;DHT22;6504;53.766;9.626;2022-10-29T12:25:59;16.30;99.90
12872;DHT22;6504;53.766;9.626;2022-10-29T12:28:37;16.30;99.90
12872;DHT22;6504;53.766;9.626;2022-10-29T12:31:19;16.40;99.90
12872;DHT22;6504;53.766;9.626;2022-10-29T12:33:56;16.40;99.90
12872;DHT22;6504;53.766;9.626;2022-10-29T12:36:31;16.40;99.90
12872;DHT22;6504;53.766;9.626;2022-10-29T12:39:04;16.40;99.90
12872;DHT22;6504;53.766;9.626;2022-10-29T12:41:39;16.40;99.90
12872;DHT22;6504;53.766;9.626;2022-10-29T12:44:15;16.40;99.90
12872;DHT22;6504;53.766;9.626;2022-10-29T12:46:50;16.50;99.90
12872;DHT22;6504;53.766;9.626;2022-10-29T12:49:36;16.50;99.90
12872;DHT22;6504;53.766;9.626;2022-10-29T12:52:09;16.50;99.90
12872;DHT22;6504;53.766;9.626;2022-10-29T12:54:41;16.50;99.90
12872;DHT22;6504;53.766;9.626;2022-10-29T12:57:27;16.50;99.90
12872;DHT22;6504;53.766;9.626;2022-10-29T12:59:56;16.50;99.90
12872;DHT22;6504;53.766;9.626;2022-10-29T13:02:27;16.60;99.90
12872;DHT22;6504;53.766;9.626;2022-10-29T13:05:17;16.60;99.90
12872;DHT22;6504;53.766;9.626;2022-10-29T13:10:59;16.60;99.90
12872;DHT22;6504;53.766;9.626;2022-10-29T13:13:49;16.60;99.90
12872;DHT22;6504;53.766;9.626;2022-10-29T13:16:26;16.60;99.90
12872;DHT22;6504;53.766;9.626;2022-10-29T13:19:07;16.60;99.90
12872;DHT22;6504;53.766;9.626;2022-10-29T13:24:40;16.60;99.90
12872;DHT22;6504;53.766;9.626;2022-10-29T13:27:32;16.70;99.90
12872;DHT22;6504;53.766;9.626;2022-10-29T13:30:16;16.70;99.90
12872;DHT22;6504;53.766;9.626;2022-10-29T13:32:44;16.70;99.90
12872;DHT22;6504;53.766;9.626;2022-10-29T13:35:38;16.70;99.90
12872;DHT22;6504;53.766;9.626;2022-10-29T13:38:13;16.70;99.90
12872;DHT22;6504;53.766;9.626;2022-10-29T13:43:53;16.70;99.90
12872;DHT22;6504;53.766;9.626;2022-10-29T13:46:45;16.80;99.90
12872;DHT22;6504;53.766;9.626;2022-10-29T13:49:21;16.80;99.90
12872;DHT22;6504;53.766;9.626;2022-10-29T13:51:53;16.90;99.90
12872;DHT22;6504;53.766;9.626;2022-10-29T13:54:27;16.90;99.90
12872;DHT22;6504;53.766;9.626;2022-10-29T13:56:58;16.90;99.90
12872;DHT22;6504;53.766;9.626;2022-10-29T13:59:37;17.00;99.90
12872;DHT22;6504;53.766;9.626;2022-10-29T14:02:22;17.00;99.90
12872;DHT22;6504;53.766;9.626;2022-10-29T14:04:55;17.00;99.90
12872;DHT22;6504;53.766;9.626;2022-10-29T14:07:29;17.00;99.90
12872;DHT22;6504;53.766;9.626;2022-10-29T14:10:06;17.10;99.90
12872;DHT22;6504;53.766;9.626;2022-10-29T14:12:35;17.10;99.90
12872;DHT22;6504;53.766;9.626;2022-10-29T14:15:10;17.10;99.90
12872;DHT22;6504;53.766;9.626;2022-10-29T14:17:38;17.10;99.90
12872;DHT22;6504;53.766;9.626;2022-10-29T14:20:19;17.10;99.90
12872;DHT22;6504;53.766;9.626;2022-10-29T14:22:47;17.10;99.90
12872;DHT22;6504;53.766;9.626;2022-10-29T14:25:28;17.10;99.90
12872;DHT22;6504;53.766;9.626;2022-10-29T14:28:17;17.10;99.90
12872;DHT22;6504;53.766;9.626;2022-10-29T14:30:58;17.10;99.90
12872;DHT22;6504;53.766;9.626;2022-10-29T14:33:28;17.20;99.90
12872;DHT22;6504;53.766;9.626;2022-10-29T14:36:02;17.20;99.90
12872;DHT22;6504;53.766;9.626;2022-10-29T14:38:37;17.20;99.90
12872;DHT22;6504;53.766;9.626;2022-10-29T14:41:05;17.20;99.90
12872;DHT22;6504;53.766;9.626;2022-10-29T14:43:34;17.20;99.90
12872;DHT22;6504;53.766;9.626;2022-10-29T14:46:16;17.20;99.90
12872;DHT22;6504;53.766;9.626;2022-10-29T14:48:53;17.20;99.90
12872;DHT22;6504;53.766;9.626;2022-10-29T14:51:21;17.30;99.90
12872;DHT22;6504;53.766;9.626;2022-10-29T14:53:58;17.30;99.90
12872;DHT22;6504;53.766;9.626;2022-10-29T14:56:32;17.30;99.90
12872;DHT22;6504;53.766;9.626;2022-10-29T14:59:06;17.30;99.90
12872;DHT22;6504;53.766;9.626;2022-10-29T15:01:45;17.30;99.90
12872;DHT22;6504;53.766;9.626;2022-10-29T15:04:19;17.30;99.90
12872;DHT22;6504;53.766;9.626;2022-10-29T15:06:48;17.30;99.90
12872;DHT22;6504;53.766;9.626;2022-10-29T15:09:16;17.30;99.90
12872;DHT22;6504;53.766;9.626;2022-10-29T15:12:01;17.30;99.90
12872;DHT22;6504;53.766;9.626;2022-10-29T15:14:34;17.30;99.90
12872;DHT22;6504;53.766;9.626;2022-10-29T15:17:12;17.30;99.90
12872;DHT22;6504;53.766;9.626;2022-10-29T15:19:44;17.30;99.90
12872;DHT22;6504;53.766;9.626;2022-10-29T15:22:18;17.20;99.90
12872;DHT22;6504;53.766;9.626;2022-10-29T15:24:48;17.20;99.90
12872;DHT22;6504;53.766;9.626;2022-10-29T15:27:17;17.20;99.90
12872;DHT22;6504;53.766;9.626;2022-10-29T15:29:47;17.10;99.90
12872;DHT22;6504;53.766;9.626;2022-10-29T15:32:17;17.10;99.90
12872;DHT22;6504;53.766;9.626;2022-10-29T15:34:48;17.10;99.90
12872;DHT22;6504;53.766;9.626;2022-10-29T15:37:25;17.10;99.90
12872;DHT22;6504;53.766;9.626;2022-10-29T15:40:09;17.10;99.90
12872;DHT22;6504;53.766;9.626;2022-10-29T15:42:39;17.00;99.90
12872;DHT22;6504;53.766;9.626;2022-10-29T15:45:17;17.00;99.90
12872;DHT22;6504;53.766;9.626;2022-10-29T15:47:48;17.00;99.90
12872;DHT22;6504;53.766;9.626;2022-10-29T15:50:18;16.90;99.90
12872;DHT22;6504;53.766;9.626;2022-10-29T15:52:52;16.90;99.90
12872;DHT22;6504;53.766;9.626;2022-10-29T15:55:23;16.80;99.90
12872;DHT22;6504;53.766;9.626;2022-10-29T15:57:58;16.80;99.90
12872;DHT22;6504;53.766;9.626;2022-10-29T16:00:27;16.80;99.90
12872;DHT22;6504;53.766;9.626;2022-10-29T16:03:04;16.70;99.90
12872;DHT22;6504;53.766;9.626;2022-10-29T16:05:33;16.70;99.90
12872;DHT22;6504;53.766;9.626;2022-10-29T16:08:01;16.60;99.90
12872;DHT22;6504;53.766;9.626;2022-10-29T16:10:30;16.60;99.90
12872;DHT22;6504;53.766;9.626;2022-10-29T16:12:58;16.60;99.90
12872;DHT22;6504;53.766;9.626;2022-10-29T16:15:27;16.50;99.90
12872;DHT22;6504;53.766;9.626;2022-10-29T16:17:55;16.40;99.90
12872;DHT22;6504;53.766;9.626;2022-10-29T16:20:25;16.40;99.90
12872;DHT22;6504;53.766;9.626;2022-10-29T16:22:53;16.30;99.90
12872;DHT22;6504;53.766;9.626;2022-10-29T16:25:23;16.30;99.90
12872;DHT22;6504;53.766;9.626;2022-10-29T16:27:51;16.30;99.90
12872;DHT22;6504;53.766;9.626;2022-10-29T16:30:21;16.20;99.90
12872;DHT22;6504;53.766;9.626;2022-10-29T16:32:50;16.20;99.90
12872;DHT22;6504;53.766;9.626;2022-10-29T16:35:20;16.20;99.90
12872;DHT22;6504;53.766;9.626;2022-10-29T16:37:51;16.10;99.90